sensor_id;sensor_type;location;lat;lon;timestamp;P1;durP1;ratioP1;P2;durP2;ratioP2
32633;SDS011;19043;51.012;5.648;2023-08-12T00:02:07;53.47;;;47.77;;
32633;SDS011;19043;51.012;5.648;2023-08-12T00:04:33;52.13;;;47.07;;
32633;SDS011;19043;51.012;5.648;2023-08-12T00:06:58;56.55;;;48.80;;
32633;SDS011;19043;51.012;5.648;2023-08-12T00:09:23;51.55;;;46.15;;
32633;SDS011;19043;51.012;5.648;2023-08-12T00:11:48;80.13;;;55.63;;
32633;SDS011;19043;51.012;5.648;2023-08-12T00:14:14;43.83;;;39.72;;
32633;SDS011;19043;51.012;5.648;2023-08-12T00:16:39;51.67;;;46.72;;
32633;SDS011;19043;51.012;5.648;2023-08-12T00:19:04;57.73;;;48.60;;
32633;SDS011;19043;51.012;5.648;2023-08-12T00:21:29;54.47;;;47.22;;
32633;SDS011;19043;51.012;5.648;2023-08-12T00:23:55;56.90;;;48.03;;
32633;SDS011;19043;51.012;5.648;2023-08-12T00:26:20;47.28;;;42.45;;
32633;SDS011;19043;51.012;5.648;2023-08-12T00:28:48;47.78;;;42.95;;
32633;SDS011;19043;51.012;5.648;2023-08-12T00:31:13;47.47;;;42.42;;
32633;SDS011;19043;51.012;5.648;2023-08-12T00:33:38;42.70;;;38.57;;
32633;SDS011;19043;51.012;5.648;2023-08-12T00:36:04;49.78;;;44.72;;
32633;SDS011;19043;51.012;5.648;2023-08-12T00:38:29;43.42;;;39.17;;
32633;SDS011;19043;51.012;5.648;2023-08-12T00:40:54;48.23;;;41.93;;
32633;SDS011;19043;51.012;5.648;2023-08-12T00:43:20;52.25;;;46.15;;
32633;SDS011;19043;51.012;5.648;2023-08-12T00:45:45;43.65;;;39.13;;
32633;SDS011;19043;51.012;5.648;2023-08-12T00:48:10;43.03;;;38.60;;
32633;SDS011;19043;51.012;5.648;2023-08-12T00:50:36;40.78;;;36.78;;
32633;SDS011;19043;51.012;5.648;2023-08-12T00:53:02;46.22;;;41.20;;
32633;SDS011;19043;51.012;5.648;2023-08-12T00:55:27;44.63;;;40.05;;
32633;SDS011;19043;51.012;5.648;2023-08-12T00:57:53;46.35;;;41.38;;
32633;SDS011;19043;51.012;5.648;2023-08-12T01:00:18;47.65;;;42.30;;
32633;SDS011;19043;51.012;5.648;2023-08-12T01:02:46;48.80;;;43.00;;
32633;SDS011;19043;51.012;5.648;2023-08-12T01:05:13;48.20;;;43.30;;
32633;SDS011;19043;51.012;5.648;2023-08-12T01:07:38;47.15;;;42.42;;
32633;SDS011;19043;51.012;5.648;2023-08-12T01:10:04;45.45;;;40.72;;
32633;SDS011;19043;51.012;5.648;2023-08-12T01:12:32;46.00;;;41.15;;
32633;SDS011;19043;51.012;5.648;2023-08-12T01:17:24;49.03;;;44.38;;
32633;SDS011;19043;51.012;5.648;2023-08-12T01:19:50;55.33;;;45.45;;
32633;SDS011;19043;51.012;5.648;2023-08-12T01:22:16;47.15;;;42.15;;
32633;SDS011;19043;51.012;5.648;2023-08-12T01:24:44;46.28;;;41.40;;
32633;SDS011;19043;51.012;5.648;2023-08-12T01:27:11;50.22;;;44.88;;
32633;SDS011;19043;51.012;5.648;2023-08-12T01:29:41;54.05;;;48.13;;
32633;SDS011;19043;51.012;5.648;2023-08-12T01:34:44;52.55;;;44.10;;
32633;SDS011;19043;51.012;5.648;2023-08-12T01:37:11;43.58;;;39.30;;
32633;SDS011;19043;51.012;5.648;2023-08-12T01:39:39;51.67;;;44.45;;
32633;SDS011;19043;51.012;5.648;2023-08-12T01:42:05;45.22;;;40.53;;
32633;SDS011;19043;51.012;5.648;2023-08-12T01:44:31;47.55;;;42.60;;
32633;SDS011;19043;51.012;5.648;2023-08-12T01:46:56;42.35;;;38.22;;
32633;SDS011;19043;51.012;5.648;2023-08-12T01:49:22;39.72;;;36.00;;
32633;SDS011;19043;51.012;5.648;2023-08-12T01:51:49;40.75;;;37.10;;
32633;SDS011;19043;51.012;5.648;2023-08-12T01:54:14;48.17;;;41.05;;
32633;SDS011;19043;51.012;5.648;2023-08-12T01:56:39;47.57;;;41.57;;
32633;SDS011;19043;51.012;5.648;2023-08-12T01:59:05;41.97;;;37.73;;
32633;SDS011;19043;51.012;5.648;2023-08-12T02:01:30;48.40;;;43.23;;
32633;SDS011;19043;51.012;5.648;2023-08-12T02:03:55;46.23;;;41.63;;
32633;SDS011;19043;51.012;5.648;2023-08-12T02:06:20;47.53;;;41.97;;
32633;SDS011;19043;51.012;5.648;2023-08-12T02:08:46;52.67;;;42.70;;
32633;SDS011;19043;51.012;5.648;2023-08-12T02:11:11;45.00;;;40.58;;
32633;SDS011;19043;51.012;5.648;2023-08-12T02:13:36;35.80;;;32.43;;
32633;SDS011;19043;51.012;5.648;2023-08-12T02:16:01;42.87;;;38.33;;
32633;SDS011;19043;51.012;5.648;2023-08-12T02:18:27;50.75;;;42.72;;
32633;SDS011;19043;51.012;5.648;2023-08-12T02:20:52;52.87;;;40.73;;
32633;SDS011;19043;51.012;5.648;2023-08-12T02:23:18;41.10;;;37.15;;
32633;SDS011;19043;51.012;5.648;2023-08-12T02:25:43;48.83;;;41.30;;
32633;SDS011;19043;51.012;5.648;2023-08-12T02:28:08;43.50;;;39.03;;
32633;SDS011;19043;51.012;5.648;2023-08-12T02:30:34;53.83;;;44.03;;
32633;SDS011;19043;51.012;5.648;2023-08-12T02:32:59;47.72;;;42.45;;
32633;SDS011;19043;51.012;5.648;2023-08-12T02:35:24;42.37;;;38.00;;
32633;SDS011;19043;51.012;5.648;2023-08-12T02:37:49;58.13;;;44.27;;
32633;SDS011;19043;51.012;5.648;2023-08-12T02:40:15;43.00;;;38.03;;
32633;SDS011;19043;51.012;5.648;2023-08-12T02:42:40;45.60;;;40.05;;
32633;SDS011;19043;51.012;5.648;2023-08-12T02:45:05;43.50;;;39.17;;
32633;SDS011;19043;51.012;5.648;2023-08-12T02:47:30;54.72;;;44.35;;
32633;SDS011;19043;51.012;5.648;2023-08-12T02:49:56;42.33;;;38.07;;
32633;SDS011;19043;51.012;5.648;2023-08-12T02:52:21;42.60;;;38.10;;
32633;SDS011;19043;51.012;5.648;2023-08-12T02:54:46;45.38;;;40.45;;
32633;SDS011;19043;51.012;5.648;2023-08-12T02:57:12;41.37;;;37.37;;
32633;SDS011;19043;51.012;5.648;2023-08-12T02:59:40;51.87;;;42.47;;
32633;SDS011;19043;51.012;5.648;2023-08-12T03:02:05;41.28;;;37.15;;
32633;SDS011;19043;51.012;5.648;2023-08-12T03:04:30;49.70;;;43.30;;
32633;SDS011;19043;51.012;5.648;2023-08-12T03:06:55;53.20;;;43.77;;
32633;SDS011;19043;51.012;5.648;2023-08-12T03:09:21;47.30;;;40.73;;
32633;SDS011;19043;51.012;5.648;2023-08-12T03:11:46;52.65;;;46.58;;
32633;SDS011;19043;51.012;5.648;2023-08-12T03:14:11;45.58;;;40.85;;
32633;SDS011;19043;51.012;5.648;2023-08-12T03:16:37;45.75;;;41.05;;
32633;SDS011;19043;51.012;5.648;2023-08-12T03:19:02;46.55;;;41.53;;
32633;SDS011;19043;51.012;5.648;2023-08-12T03:21:27;43.60;;;39.17;;
32633;SDS011;19043;51.012;5.648;2023-08-12T03:23:53;42.75;;;38.30;;
32633;SDS011;19043;51.012;5.648;2023-08-12T03:26:18;43.85;;;39.25;;
32633;SDS011;19043;51.012;5.648;2023-08-12T03:28:43;42.67;;;38.27;;
32633;SDS011;19043;51.012;5.648;2023-08-12T03:31:08;45.70;;;40.25;;
32633;SDS011;19043;51.012;5.648;2023-08-12T03:33:34;43.93;;;39.13;;
32633;SDS011;19043;51.012;5.648;2023-08-12T03:35:59;53.83;;;42.95;;
32633;SDS011;19043;51.012;5.648;2023-08-12T03:38:24;42.03;;;37.83;;
32633;SDS011;19043;51.012;5.648;2023-08-12T03:40:49;55.45;;;42.45;;
32633;SDS011;19043;51.012;5.648;2023-08-12T03:43:15;42.90;;;38.70;;
32633;SDS011;19043;51.012;5.648;2023-08-12T03:45:40;44.38;;;39.10;;
32633;SDS011;19043;51.012;5.648;2023-08-12T03:48:06;46.13;;;41.35;;
32633;SDS011;19043;51.012;5.648;2023-08-12T03:50:37;45.17;;;40.63;;
32633;SDS011;19043;51.012;5.648;2023-08-12T03:53:03;49.92;;;42.53;;
32633;SDS011;19043;51.012;5.648;2023-08-12T03:55:32;45.85;;;41.50;;
32633;SDS011;19043;51.012;5.648;2023-08-12T03:57:58;51.47;;;43.60;;
32633;SDS011;19043;51.012;5.648;2023-08-12T04:00:24;43.47;;;38.97;;
32633;SDS011;19043;51.012;5.648;2023-08-12T04:02:49;56.63;;;44.75;;
32633;SDS011;19043;51.012;5.648;2023-08-12T04:05:14;77.45;;;48.42;;
32633;SDS011;19043;51.012;5.648;2023-08-12T04:07:39;54.30;;;42.67;;
32633;SDS011;19043;51.012;5.648;2023-08-12T04:10:05;69.85;;;49.45;;
32633;SDS011;19043;51.012;5.648;2023-08-12T04:12:30;47.67;;;42.65;;
32633;SDS011;19043;51.012;5.648;2023-08-12T04:14:55;58.67;;;47.70;;
32633;SDS011;19043;51.012;5.648;2023-08-12T04:17:21;48.37;;;43.20;;
32633;SDS011;19043;51.012;5.648;2023-08-12T04:19:46;53.65;;;46.47;;
32633;SDS011;19043;51.012;5.648;2023-08-12T04:22:11;57.83;;;48.73;;
32633;SDS011;19043;51.012;5.648;2023-08-12T04:24:36;58.13;;;46.77;;
32633;SDS011;19043;51.012;5.648;2023-08-12T04:27:02;67.25;;;52.22;;
32633;SDS011;19043;51.012;5.648;2023-08-12T04:29:27;68.38;;;54.65;;
32633;SDS011;19043;51.012;5.648;2023-08-12T04:31:52;68.03;;;54.60;;
32633;SDS011;19043;51.012;5.648;2023-08-12T04:34:18;66.27;;;54.93;;
32633;SDS011;19043;51.012;5.648;2023-08-12T04:36:43;63.70;;;51.30;;
32633;SDS011;19043;51.012;5.648;2023-08-12T04:39:08;82.10;;;67.03;;
32633;SDS011;19043;51.012;5.648;2023-08-12T04:41:35;77.90;;;58.25;;
32633;SDS011;19043;51.012;5.648;2023-08-12T04:44:00;90.10;;;60.58;;
32633;SDS011;19043;51.012;5.648;2023-08-12T04:46:25;65.30;;;54.63;;
32633;SDS011;19043;51.012;5.648;2023-08-12T04:48:50;72.40;;;57.47;;
32633;SDS011;19043;51.012;5.648;2023-08-12T04:51:16;64.18;;;52.90;;
32633;SDS011;19043;51.012;5.648;2023-08-12T04:53:41;62.75;;;51.42;;
32633;SDS011;19043;51.012;5.648;2023-08-12T04:56:06;50.03;;;44.65;;
32633;SDS011;19043;51.012;5.648;2023-08-12T04:58:32;47.72;;;42.80;;
32633;SDS011;19043;51.012;5.648;2023-08-12T05:00:57;49.72;;;41.00;;
32633;SDS011;19043;51.012;5.648;2023-08-12T05:03:23;52.35;;;40.88;;
32633;SDS011;19043;51.012;5.648;2023-08-12T05:05:51;34.97;;;30.48;;
32633;SDS011;19043;51.012;5.648;2023-08-12T05:08:19;31.60;;;28.35;;
32633;SDS011;19043;51.012;5.648;2023-08-12T05:10:48;28.33;;;25.45;;
32633;SDS011;19043;51.012;5.648;2023-08-12T05:13:13;28.73;;;25.70;;
32633;SDS011;19043;51.012;5.648;2023-08-12T05:15:39;24.42;;;21.88;;
32633;SDS011;19043;51.012;5.648;2023-08-12T05:18:04;23.77;;;21.13;;
32633;SDS011;19043;51.012;5.648;2023-08-12T05:20:30;22.00;;;19.80;;
32633;SDS011;19043;51.012;5.648;2023-08-12T05:22:55;25.60;;;22.33;;
32633;SDS011;19043;51.012;5.648;2023-08-12T05:25:20;21.33;;;17.67;;
32633;SDS011;19043;51.012;5.648;2023-08-12T05:27:46;19.10;;;15.60;;
32633;SDS011;19043;51.012;5.648;2023-08-12T05:30:11;15.40;;;13.75;;
32633;SDS011;19043;51.012;5.648;2023-08-12T05:32:36;17.38;;;14.50;;
32633;SDS011;19043;51.012;5.648;2023-08-12T05:35:02;15.73;;;13.18;;
32633;SDS011;19043;51.012;5.648;2023-08-12T05:37:27;14.10;;;12.45;;
32633;SDS011;19043;51.012;5.648;2023-08-12T05:39:52;14.67;;;13.10;;
32633;SDS011;19043;51.012;5.648;2023-08-12T05:42:17;12.77;;;11.57;;
32633;SDS011;19043;51.012;5.648;2023-08-12T05:44:43;12.13;;;10.57;;
32633;SDS011;19043;51.012;5.648;2023-08-12T05:47:08;14.27;;;12.30;;
32633;SDS011;19043;51.012;5.648;2023-08-12T05:49:33;14.87;;;11.73;;
32633;SDS011;19043;51.012;5.648;2023-08-12T05:51:59;13.67;;;12.10;;
32633;SDS011;19043;51.012;5.648;2023-08-12T05:54:24;11.40;;;10.27;;
32633;SDS011;19043;51.012;5.648;2023-08-12T05:56:49;12.65;;;10.93;;
32633;SDS011;19043;51.012;5.648;2023-08-12T05:59:15;11.48;;;10.40;;
32633;SDS011;19043;51.012;5.648;2023-08-12T06:01:40;13.30;;;11.95;;
32633;SDS011;19043;51.012;5.648;2023-08-12T06:04:05;11.77;;;10.53;;
32633;SDS011;19043;51.012;5.648;2023-08-12T06:06:30;12.10;;;10.90;;
32633;SDS011;19043;51.012;5.648;2023-08-12T06:08:56;10.57;;;9.57;;
32633;SDS011;19043;51.012;5.648;2023-08-12T06:11:21;11.07;;;10.07;;
32633;SDS011;19043;51.012;5.648;2023-08-12T06:13:46;10.73;;;9.73;;
32633;SDS011;19043;51.012;5.648;2023-08-12T06:16:11;10.73;;;9.60;;
32633;SDS011;19043;51.012;5.648;2023-08-12T06:18:37;10.32;;;8.95;;
32633;SDS011;19043;51.012;5.648;2023-08-12T06:21:02;9.73;;;8.83;;
32633;SDS011;19043;51.012;5.648;2023-08-12T06:23:27;10.17;;;8.67;;
32633;SDS011;19043;51.012;5.648;2023-08-12T06:25:52;8.60;;;7.65;;
32633;SDS011;19043;51.012;5.648;2023-08-12T06:28:18;10.37;;;8.40;;
32633;SDS011;19043;51.012;5.648;2023-08-12T06:30:46;9.27;;;8.02;;
32633;SDS011;19043;51.012;5.648;2023-08-12T06:33:13;9.30;;;8.20;;
32633;SDS011;19043;51.012;5.648;2023-08-12T06:35:38;9.10;;;8.20;;
32633;SDS011;19043;51.012;5.648;2023-08-12T06:38:04;8.18;;;7.38;;
32633;SDS011;19043;51.012;5.648;2023-08-12T06:40:30;8.37;;;7.40;;
32633;SDS011;19043;51.012;5.648;2023-08-12T06:42:55;10.00;;;8.82;;
32633;SDS011;19043;51.012;5.648;2023-08-12T06:45:21;9.65;;;8.65;;
32633;SDS011;19043;51.012;5.648;2023-08-12T06:47:46;8.13;;;7.33;;
32633;SDS011;19043;51.012;5.648;2023-08-12T06:50:11;9.50;;;8.48;;
32633;SDS011;19043;51.012;5.648;2023-08-12T06:52:36;8.32;;;7.38;;
32633;SDS011;19043;51.012;5.648;2023-08-12T06:55:02;6.65;;;5.35;;
32633;SDS011;19043;51.012;5.648;2023-08-12T06:57:27;6.72;;;6.03;;
32633;SDS011;19043;51.012;5.648;2023-08-12T06:59:52;7.43;;;6.07;;
32633;SDS011;19043;51.012;5.648;2023-08-12T07:02:18;6.72;;;5.85;;
32633;SDS011;19043;51.012;5.648;2023-08-12T07:04:43;7.35;;;5.82;;
32633;SDS011;19043;51.012;5.648;2023-08-12T07:07:08;5.82;;;5.18;;
32633;SDS011;19043;51.012;5.648;2023-08-12T07:09:33;5.77;;;3.47;;
32633;SDS011;19043;51.012;5.648;2023-08-12T07:11:59;6.57;;;4.47;;
32633;SDS011;19043;51.012;5.648;2023-08-12T07:14:26;4.95;;;4.43;;
32633;SDS011;19043;51.012;5.648;2023-08-12T07:16:53;4.82;;;4.32;;
32633;SDS011;19043;51.012;5.648;2023-08-12T07:19:18;6.78;;;4.93;;
32633;SDS011;19043;51.012;5.648;2023-08-12T07:21:43;6.83;;;5.03;;
32633;SDS011;19043;51.012;5.648;2023-08-12T07:24:08;6.60;;;4.83;;
32633;SDS011;19043;51.012;5.648;2023-08-12T07:26:34;4.77;;;4.10;;
32633;SDS011;19043;51.012;5.648;2023-08-12T07:28:59;6.18;;;4.45;;
32633;SDS011;19043;51.012;5.648;2023-08-12T07:31:24;4.75;;;4.30;;
32633;SDS011;19043;51.012;5.648;2023-08-12T07:33:50;5.18;;;4.68;;
32633;SDS011;19043;51.012;5.648;2023-08-12T07:36:15;5.95;;;3.92;;
32633;SDS011;19043;51.012;5.648;2023-08-12T07:38:40;4.17;;;3.67;;
32633;SDS011;19043;51.012;5.648;2023-08-12T07:41:05;5.53;;;4.30;;
32633;SDS011;19043;51.012;5.648;2023-08-12T07:43:31;4.47;;;3.87;;
32633;SDS011;19043;51.012;5.648;2023-08-12T07:45:56;5.60;;;4.77;;
32633;SDS011;19043;51.012;5.648;2023-08-12T07:48:21;5.10;;;3.53;;
32633;SDS011;19043;51.012;5.648;2023-08-12T07:50:46;4.00;;;3.60;;
32633;SDS011;19043;51.012;5.648;2023-08-12T07:53:14;4.95;;;3.40;;
32633;SDS011;19043;51.012;5.648;2023-08-12T07:55:39;4.03;;;3.53;;
32633;SDS011;19043;51.012;5.648;2023-08-12T07:58:04;3.70;;;3.05;;
32633;SDS011;19043;51.012;5.648;2023-08-12T08:00:30;4.28;;;3.65;;
32633;SDS011;19043;51.012;5.648;2023-08-12T08:02:55;4.23;;;3.70;;
32633;SDS011;19043;51.012;5.648;2023-08-12T08:05:20;3.80;;;3.40;;
32633;SDS011;19043;51.012;5.648;2023-08-12T08:07:45;4.20;;;3.50;;
32633;SDS011;19043;51.012;5.648;2023-08-12T08:10:11;4.30;;;2.87;;
32633;SDS011;19043;51.012;5.648;2023-08-12T08:12:36;4.35;;;3.30;;
32633;SDS011;19043;51.012;5.648;2023-08-12T08:15:01;3.10;;;2.57;;
32633;SDS011;19043;51.012;5.648;2023-08-12T08:17:28;3.30;;;2.65;;
32633;SDS011;19043;51.012;5.648;2023-08-12T08:19:53;3.67;;;2.13;;
32633;SDS011;19043;51.012;5.648;2023-08-12T08:22:18;2.70;;;1.77;;
32633;SDS011;19043;51.012;5.648;2023-08-12T08:24:52;3.13;;;1.90;;
32633;SDS011;19043;51.012;5.648;2023-08-12T08:27:25;2.40;;;1.70;;
32633;SDS011;19043;51.012;5.648;2023-08-12T08:29:50;2.33;;;1.73;;
32633;SDS011;19043;51.012;5.648;2023-08-12T08:32:16;2.87;;;2.03;;
32633;SDS011;19043;51.012;5.648;2023-08-12T08:34:41;3.25;;;2.08;;
32633;SDS011;19043;51.012;5.648;2023-08-12T08:37:07;2.40;;;1.70;;
32633;SDS011;19043;51.012;5.648;2023-08-12T08:39:32;2.60;;;1.60;;
32633;SDS011;19043;51.012;5.648;2023-08-12T08:42:02;2.90;;;1.88;;
32633;SDS011;19043;51.012;5.648;2023-08-12T08:44:28;2.88;;;1.80;;
32633;SDS011;19043;51.012;5.648;2023-08-12T08:46:56;6.30;;;1.95;;
32633;SDS011;19043;51.012;5.648;2023-08-12T08:49:23;2.33;;;1.83;;
32633;SDS011;19043;51.012;5.648;2023-08-12T08:51:49;3.63;;;2.20;;
32633;SDS011;19043;51.012;5.648;2023-08-12T08:54:15;2.75;;;1.85;;
32633;SDS011;19043;51.012;5.648;2023-08-12T08:56:40;2.50;;;1.65;;
32633;SDS011;19043;51.012;5.648;2023-08-12T08:59:05;2.70;;;2.13;;
32633;SDS011;19043;51.012;5.648;2023-08-12T09:01:31;2.97;;;2.50;;
32633;SDS011;19043;51.012;5.648;2023-08-12T09:03:57;2.90;;;2.17;;
32633;SDS011;19043;51.012;5.648;2023-08-12T09:06:24;3.03;;;2.30;;
32633;SDS011;19043;51.012;5.648;2023-08-12T09:08:51;3.15;;;2.50;;
32633;SDS011;19043;51.012;5.648;2023-08-12T09:11:17;5.25;;;2.42;;
32633;SDS011;19043;51.012;5.648;2023-08-12T09:13:42;3.50;;;2.30;;
32633;SDS011;19043;51.012;5.648;2023-08-12T09:16:07;3.42;;;2.70;;
32633;SDS011;19043;51.012;5.648;2023-08-12T09:18:34;3.03;;;2.45;;
32633;SDS011;19043;51.012;5.648;2023-08-12T09:20:59;2.70;;;2.10;;
32633;SDS011;19043;51.012;5.648;2023-08-12T09:23:26;3.88;;;2.63;;
32633;SDS011;19043;51.012;5.648;2023-08-12T09:25:51;3.45;;;2.53;;
32633;SDS011;19043;51.012;5.648;2023-08-12T09:28:16;2.87;;;1.90;;
32633;SDS011;19043;51.012;5.648;2023-08-12T09:30:41;3.28;;;2.38;;
32633;SDS011;19043;51.012;5.648;2023-08-12T09:33:07;2.95;;;2.08;;
32633;SDS011;19043;51.012;5.648;2023-08-12T09:37:58;3.28;;;2.47;;
32633;SDS011;19043;51.012;5.648;2023-08-12T09:40:24;3.43;;;2.30;;
32633;SDS011;19043;51.012;5.648;2023-08-12T09:42:49;5.90;;;2.38;;
32633;SDS011;19043;51.012;5.648;2023-08-12T09:45:15;4.90;;;2.47;;
32633;SDS011;19043;51.012;5.648;2023-08-12T09:47:41;3.13;;;2.42;;
32633;SDS011;19043;51.012;5.648;2023-08-12T09:50:07;3.30;;;2.80;;
32633;SDS011;19043;51.012;5.648;2023-08-12T09:52:32;3.88;;;2.88;;
32633;SDS011;19043;51.012;5.648;2023-08-12T09:54:57;3.85;;;3.10;;
32633;SDS011;19043;51.012;5.648;2023-08-12T09:57:24;4.05;;;3.13;;
32633;SDS011;19043;51.012;5.648;2023-08-12T09:59:51;4.57;;;3.50;;
32633;SDS011;19043;51.012;5.648;2023-08-12T10:02:18;5.68;;;3.97;;
32633;SDS011;19043;51.012;5.648;2023-08-12T10:04:45;4.22;;;3.75;;
32633;SDS011;19043;51.012;5.648;2023-08-12T10:07:10;4.75;;;3.75;;
32633;SDS011;19043;51.012;5.648;2023-08-12T10:09:38;4.05;;;3.30;;
32633;SDS011;19043;51.012;5.648;2023-08-12T10:12:04;3.83;;;3.20;;
32633;SDS011;19043;51.012;5.648;2023-08-12T10:14:29;4.28;;;3.00;;
32633;SDS011;19043;51.012;5.648;2023-08-12T10:16:54;3.45;;;2.83;;
32633;SDS011;19043;51.012;5.648;2023-08-12T10:19:20;5.25;;;2.60;;
32633;SDS011;19043;51.012;5.648;2023-08-12T10:21:46;3.95;;;2.65;;
32633;SDS011;19043;51.012;5.648;2023-08-12T10:24:12;2.88;;;2.17;;
32633;SDS011;19043;51.012;5.648;2023-08-12T10:26:39;3.95;;;2.65;;
32633;SDS011;19043;51.012;5.648;2023-08-12T10:29:05;2.22;;;1.70;;
32633;SDS011;19043;51.012;5.648;2023-08-12T10:31:30;2.92;;;1.60;;
32633;SDS011;19043;51.012;5.648;2023-08-12T10:33:57;2.80;;;1.87;;
32633;SDS011;19043;51.012;5.648;2023-08-12T10:36:22;4.45;;;1.80;;
32633;SDS011;19043;51.012;5.648;2023-08-12T10:38:47;2.90;;;1.77;;
32633;SDS011;19043;51.012;5.648;2023-08-12T10:41:20;3.17;;;1.63;;
32633;SDS011;19043;51.012;5.648;2023-08-12T10:44:05;3.30;;;1.40;;
32633;SDS011;19043;51.012;5.648;2023-08-12T10:46:34;4.82;;;1.40;;
32633;SDS011;19043;51.012;5.648;2023-08-12T10:51:47;2.55;;;1.35;;
32633;SDS011;19043;51.012;5.648;2023-08-12T11:02:25;1.67;;;1.00;;
32633;SDS011;19043;51.012;5.648;2023-08-12T11:04:57;1.83;;;1.10;;
32633;SDS011;19043;51.012;5.648;2023-08-12T11:07:29;1.90;;;1.23;;
32633;SDS011;19043;51.012;5.648;2023-08-12T11:09:58;2.38;;;1.30;;
32633;SDS011;19043;51.012;5.648;2023-08-12T11:12:29;3.88;;;2.22;;
32633;SDS011;19043;51.012;5.648;2023-08-12T11:14:57;2.90;;;1.90;;
32633;SDS011;19043;51.012;5.648;2023-08-12T11:17:29;3.38;;;1.88;;
32633;SDS011;19043;51.012;5.648;2023-08-12T11:19:55;3.78;;;2.67;;
32633;SDS011;19043;51.012;5.648;2023-08-12T11:22:20;3.80;;;2.90;;
32633;SDS011;19043;51.012;5.648;2023-08-12T11:24:45;3.22;;;2.92;;
32633;SDS011;19043;51.012;5.648;2023-08-12T11:27:12;4.00;;;3.20;;
32633;SDS011;19043;51.012;5.648;2023-08-12T11:29:38;3.83;;;3.20;;
32633;SDS011;19043;51.012;5.648;2023-08-12T11:32:04;3.25;;;2.95;;
32633;SDS011;19043;51.012;5.648;2023-08-12T11:34:30;3.45;;;2.80;;
32633;SDS011;19043;51.012;5.648;2023-08-12T11:36:56;5.57;;;2.45;;
32633;SDS011;19043;51.012;5.648;2023-08-12T11:39:21;3.75;;;2.30;;
32633;SDS011;19043;51.012;5.648;2023-08-12T11:41:48;4.07;;;2.83;;
32633;SDS011;19043;51.012;5.648;2023-08-12T11:44:15;3.47;;;2.33;;
32633;SDS011;19043;51.012;5.648;2023-08-12T11:46:41;5.32;;;2.75;;
32633;SDS011;19043;51.012;5.648;2023-08-12T11:49:06;3.03;;;1.90;;
32633;SDS011;19043;51.012;5.648;2023-08-12T11:51:32;2.70;;;1.98;;
32633;SDS011;19043;51.012;5.648;2023-08-12T11:53:58;3.22;;;2.45;;
32633;SDS011;19043;51.012;5.648;2023-08-12T11:56:23;2.72;;;2.03;;
32633;SDS011;19043;51.012;5.648;2023-08-12T11:58:48;2.13;;;1.48;;
32633;SDS011;19043;51.012;5.648;2023-08-12T12:01:15;3.58;;;2.00;;
32633;SDS011;19043;51.012;5.648;2023-08-12T12:03:41;3.35;;;1.60;;
32633;SDS011;19043;51.012;5.648;2023-08-12T12:06:06;3.30;;;1.67;;
32633;SDS011;19043;51.012;5.648;2023-08-12T12:08:32;2.80;;;1.48;;
32633;SDS011;19043;51.012;5.648;2023-08-12T12:10:57;2.22;;;1.00;;
32633;SDS011;19043;51.012;5.648;2023-08-12T12:13:29;3.67;;;1.38;;
32633;SDS011;19043;51.012;5.648;2023-08-12T12:15:54;3.15;;;1.38;;
32633;SDS011;19043;51.012;5.648;2023-08-12T12:18:20;2.40;;;1.13;;
32633;SDS011;19043;51.012;5.648;2023-08-12T12:20:55;2.00;;;0.97;;
32633;SDS011;19043;51.012;5.648;2023-08-12T12:23:22;2.33;;;1.30;;
32633;SDS011;19043;51.012;5.648;2023-08-12T12:25:47;2.20;;;1.00;;
32633;SDS011;19043;51.012;5.648;2023-08-12T12:28:12;1.85;;;0.80;;
32633;SDS011;19043;51.012;5.648;2023-08-12T12:30:38;1.95;;;1.00;;
32633;SDS011;19043;51.012;5.648;2023-08-12T12:33:03;2.20;;;0.95;;
32633;SDS011;19043;51.012;5.648;2023-08-12T12:35:28;1.73;;;0.77;;
32633;SDS011;19043;51.012;5.648;2023-08-12T12:37:53;2.10;;;0.73;;
32633;SDS011;19043;51.012;5.648;2023-08-12T12:40:19;1.10;;;0.50;;
32633;SDS011;19043;51.012;5.648;2023-08-12T12:42:44;2.30;;;0.90;;
32633;SDS011;19043;51.012;5.648;2023-08-12T12:45:09;2.87;;;0.80;;
32633;SDS011;19043;51.012;5.648;2023-08-12T12:47:35;2.13;;;0.90;;
32633;SDS011;19043;51.012;5.648;2023-08-12T12:50:00;2.22;;;0.93;;
32633;SDS011;19043;51.012;5.648;2023-08-12T12:52:25;3.43;;;1.30;;
32633;SDS011;19043;51.012;5.648;2023-08-12T12:54:51;1.83;;;0.77;;
32633;SDS011;19043;51.012;5.648;2023-08-12T12:57:16;2.90;;;1.20;;
32633;SDS011;19043;51.012;5.648;2023-08-12T12:59:42;3.00;;;1.00;;
32633;SDS011;19043;51.012;5.648;2023-08-12T13:02:07;2.53;;;1.00;;
32633;SDS011;19043;51.012;5.648;2023-08-12T13:04:32;1.73;;;0.95;;
32633;SDS011;19043;51.012;5.648;2023-08-12T13:06:58;2.13;;;0.90;;
32633;SDS011;19043;51.012;5.648;2023-08-12T13:09:23;2.42;;;1.00;;
32633;SDS011;19043;51.012;5.648;2023-08-12T13:11:48;8.18;;;1.23;;
32633;SDS011;19043;51.012;5.648;2023-08-12T13:14:13;1.73;;;0.67;;
32633;SDS011;19043;51.012;5.648;2023-08-12T13:16:39;3.77;;;1.23;;
32633;SDS011;19043;51.012;5.648;2023-08-12T13:19:04;2.77;;;0.83;;
32633;SDS011;19043;51.012;5.648;2023-08-12T13:21:29;3.35;;;1.10;;
32633;SDS011;19043;51.012;5.648;2023-08-12T13:23:54;1.70;;;0.80;;
32633;SDS011;19043;51.012;5.648;2023-08-12T13:26:22;2.40;;;1.02;;
32633;SDS011;19043;51.012;5.648;2023-08-12T13:28:47;3.13;;;1.10;;
32633;SDS011;19043;51.012;5.648;2023-08-12T13:31:13;3.40;;;1.13;;
32633;SDS011;19043;51.012;5.648;2023-08-12T13:33:38;7.38;;;1.52;;
32633;SDS011;19043;51.012;5.648;2023-08-12T13:36:03;5.50;;;1.23;;
32633;SDS011;19043;51.012;5.648;2023-08-12T13:38:29;4.18;;;1.10;;
32633;SDS011;19043;51.012;5.648;2023-08-12T13:40:54;2.78;;;1.08;;
32633;SDS011;19043;51.012;5.648;2023-08-12T13:43:20;2.80;;;1.13;;
32633;SDS011;19043;51.012;5.648;2023-08-12T13:45:45;4.00;;;1.30;;
32633;SDS011;19043;51.012;5.648;2023-08-12T13:48:10;2.27;;;0.97;;
32633;SDS011;19043;51.012;5.648;2023-08-12T13:50:36;2.40;;;0.87;;
32633;SDS011;19043;51.012;5.648;2023-08-12T13:53:01;3.42;;;1.08;;
32633;SDS011;19043;51.012;5.648;2023-08-12T13:55:27;2.45;;;0.73;;
32633;SDS011;19043;51.012;5.648;2023-08-12T13:57:52;3.77;;;1.77;;
32633;SDS011;19043;51.012;5.648;2023-08-12T14:00:18;10.52;;;1.35;;
32633;SDS011;19043;51.012;5.648;2023-08-12T14:02:43;4.25;;;1.15;;
32633;SDS011;19043;51.012;5.648;2023-08-12T14:05:09;6.53;;;1.38;;
32633;SDS011;19043;51.012;5.648;2023-08-12T14:07:35;3.47;;;1.42;;
32633;SDS011;19043;51.012;5.648;2023-08-12T14:10:03;3.92;;;1.30;;
32633;SDS011;19043;51.012;5.648;2023-08-12T14:12:29;2.80;;;1.10;;
32633;SDS011;19043;51.012;5.648;2023-08-12T14:14:54;3.43;;;1.20;;
32633;SDS011;19043;51.012;5.648;2023-08-12T14:17:19;3.00;;;1.00;;
32633;SDS011;19043;51.012;5.648;2023-08-12T14:19:48;4.28;;;1.17;;
32633;SDS011;19043;51.012;5.648;2023-08-12T14:22:13;3.20;;;1.38;;
32633;SDS011;19043;51.012;5.648;2023-08-12T14:24:38;4.50;;;1.83;;
32633;SDS011;19043;51.012;5.648;2023-08-12T14:27:04;2.95;;;1.10;;
32633;SDS011;19043;51.012;5.648;2023-08-12T14:29:29;2.65;;;1.17;;
32633;SDS011;19043;51.012;5.648;2023-08-12T14:31:54;3.13;;;1.20;;
32633;SDS011;19043;51.012;5.648;2023-08-12T14:34:20;2.40;;;0.87;;
32633;SDS011;19043;51.012;5.648;2023-08-12T14:36:45;4.93;;;1.57;;
32633;SDS011;19043;51.012;5.648;2023-08-12T14:39:10;3.33;;;1.33;;
32633;SDS011;19043;51.012;5.648;2023-08-12T14:41:35;3.67;;;0.90;;
32633;SDS011;19043;51.012;5.648;2023-08-12T14:44:00;2.23;;;1.00;;
32633;SDS011;19043;51.012;5.648;2023-08-12T14:46:26;2.85;;;1.20;;